createdAt,value
2019-05-25T00:00:44.482Z,17.75
2019-05-25T00:03:13.487Z,16.62
2019-05-25T00:05:42.804Z,17.82
2019-05-25T00:08:11.795Z,17.75
2019-05-25T00:10:40.849Z,17.50
2019-05-25T00:13:09.889Z,18.65
2019-05-25T00:15:38.684Z,16.55
2019-05-25T00:18:07.500Z,16.27
2019-05-25T00:20:36.261Z,16.15
2019-05-25T00:23:05.020Z,16.23
2019-05-25T00:25:34.066Z,16.80
2019-05-25T00:28:02.855Z,17.55
2019-05-25T00:30:32.019Z,16.80
2019-05-25T00:33:00.834Z,16.57
2019-05-25T00:35:29.670Z,16.45
2019-05-25T00:37:58.510Z,14.90
2019-05-25T00:40:27.600Z,16.57
2019-05-25T00:42:56.654Z,15.80
2019-05-25T00:45:25.420Z,16.35
2019-05-25T00:47:54.225Z,14.50
2019-05-25T00:50:23.011Z,16.52
2019-05-25T00:52:51.779Z,14.18
2019-05-25T00:55:20.571Z,15.80
2019-05-25T00:57:49.436Z,14.87
2019-05-25T01:00:18.381Z,14.78
2019-05-25T01:02:47.277Z,14.85
2019-05-25T01:05:16.284Z,16.87
2019-05-25T01:07:45.402Z,16.55
2019-05-25T01:10:15.157Z,15.75
2019-05-25T01:12:43.910Z,15.68
2019-05-25T01:15:13.426Z,14.70
2019-05-25T01:17:42.531Z,16.40
2019-05-25T01:20:12.043Z,16.82
2019-05-25T01:22:40.803Z,14.47
2019-05-25T01:25:09.933Z,15.43
2019-05-25T01:27:38.766Z,15.10
2019-05-25T01:30:08.722Z,16.10
2019-05-25T01:32:37.633Z,15.03
2019-05-25T01:35:06.771Z,15.72
2019-05-25T01:37:35.552Z,15.03
2019-05-25T01:40:04.766Z,15.53
2019-05-25T01:42:33.645Z,13.90
2019-05-25T01:45:02.528Z,16.55
2019-05-25T01:47:31.612Z,15.65
2019-05-25T01:50:00.446Z,15.03
2019-05-25T01:52:29.311Z,13.53
2019-05-25T01:55:00.279Z,15.55
2019-05-25T01:57:28.953Z,13.98
2019-05-25T01:59:57.809Z,15.78
2019-05-25T02:02:26.697Z,14.30
2019-05-25T02:04:55.574Z,16.85
2019-05-25T02:07:24.396Z,15.88
2019-05-25T02:09:53.188Z,13.85
2019-05-25T02:12:22.188Z,14.53
2019-05-25T02:14:51.177Z,17.17
2019-05-25T02:17:20.209Z,15.25
2019-05-25T02:19:49.312Z,13.83
2019-05-25T02:22:18.191Z,13.85
2019-05-25T02:24:47.223Z,15.60
2019-05-25T02:27:16.337Z,14.30
2019-05-25T02:29:45.445Z,14.10
2019-05-25T02:32:14.236Z,14.40
2019-05-25T02:34:43.269Z,17.35
2019-05-25T02:37:12.027Z,15.15
2019-05-25T02:39:40.805Z,16.37
2019-05-25T02:42:09.875Z,16.60
2019-05-25T02:44:38.631Z,15.93
2019-05-25T02:47:07.428Z,16.48
2019-05-25T02:49:36.314Z,15.68
2019-05-25T02:52:05.716Z,13.20
2019-05-25T02:54:34.492Z,15.38
2019-05-25T02:57:03.505Z,14.98
2019-05-25T02:59:32.356Z,16.25
2019-05-25T03:02:01.319Z,25.72
2019-05-25T03:04:30.195Z,18.80
2019-05-25T03:06:59.349Z,13.10
2019-05-25T03:09:30.124Z,18.98
2019-05-25T03:11:59.823Z,18.77
2019-05-25T03:14:28.676Z,18.92
2019-05-25T03:16:57.641Z,15.23
2019-05-25T03:19:26.524Z,15.13
2019-05-25T03:21:55.688Z,12.85
2019-05-25T03:24:24.456Z,14.05
2019-05-25T03:26:53.299Z,13.50
2019-05-25T03:29:22.633Z,13.70
2019-05-25T03:31:51.508Z,15.18
2019-05-25T03:34:20.375Z,15.88
2019-05-25T03:36:49.439Z,14.30
2019-05-25T03:39:18.324Z,13.68
2019-05-25T03:41:47.091Z,14.25
2019-05-25T03:44:16.303Z,14.05
2019-05-25T03:46:45.620Z,16.07
2019-05-25T03:49:14.728Z,14.30
2019-05-25T03:51:43.619Z,15.45
2019-05-25T03:54:12.579Z,15.15
2019-05-25T03:56:41.641Z,14.25
2019-05-25T03:59:10.601Z,14.50
2019-05-25T04:01:39.580Z,16.10
2019-05-25T04:04:08.691Z,13.05
2019-05-25T04:06:37.610Z,14.75
2019-05-25T04:09:07.406Z,16.80
2019-05-25T04:11:36.294Z,13.38
2019-05-25T04:14:05.360Z,15.53
2019-05-25T04:16:34.248Z,14.87
2019-05-25T04:19:03.287Z,16.90
2019-05-25T04:21:32.255Z,16.25
2019-05-25T04:24:01.145Z,13.55
2019-05-25T04:26:30.508Z,14.00
2019-05-25T04:28:59.648Z,14.58
2019-05-25T04:31:28.590Z,12.45
2019-05-25T04:33:57.523Z,14.35
2019-05-25T04:36:26.426Z,14.83
2019-05-25T04:38:55.459Z,14.13
2019-05-25T04:41:24.384Z,15.20
2019-05-25T04:43:53.303Z,15.88
2019-05-25T04:46:22.143Z,15.83
2019-05-25T04:48:50.962Z,16.05
2019-05-25T04:51:20.044Z,15.13
2019-05-25T04:53:48.830Z,14.30
2019-05-25T04:56:17.725Z,14.53
2019-05-25T04:58:46.774Z,14.73
2019-05-25T05:01:15.615Z,13.93
2019-05-25T05:03:44.516Z,13.48
2019-05-25T05:06:13.646Z,13.35
2019-05-25T05:08:43.112Z,15.80
2019-05-25T05:11:12.404Z,12.82
2019-05-25T05:13:41.197Z,12.90
2019-05-25T05:16:10.052Z,12.85
2019-05-25T05:18:38.825Z,16.02
2019-05-25T05:21:07.740Z,16.48
2019-05-25T05:23:37.039Z,14.90
2019-05-25T05:26:05.990Z,14.07
2019-05-25T05:28:35.140Z,15.10
2019-05-25T05:31:04.194Z,15.53
2019-05-25T05:33:33.297Z,15.08
2019-05-25T05:36:03.885Z,14.77
2019-05-25T05:38:34.362Z,14.33
2019-05-25T05:41:04.190Z,15.37
2019-05-25T05:43:34.652Z,14.20
2019-05-25T05:46:05.207Z,16.57
2019-05-25T05:48:36.831Z,16.10
2019-05-25T05:51:07.396Z,17.03
2019-05-25T05:53:38.822Z,15.40
2019-05-25T05:56:07.544Z,16.97
2019-05-25T05:58:36.578Z,14.33
2019-05-25T06:01:05.369Z,17.00
2019-05-25T06:03:34.104Z,14.50
2019-05-25T06:06:03.121Z,13.43
2019-05-25T06:08:31.837Z,11.00
2019-05-25T06:11:00.564Z,10.30
2019-05-25T06:13:29.292Z,10.60
2019-05-25T06:15:58.339Z,10.77
2019-05-25T06:18:27.488Z,10.30
2019-05-25T06:20:56.216Z,11.80
2019-05-25T06:23:25.106Z,11.57
2019-05-25T06:25:54.201Z,11.40
2019-05-25T06:28:23.124Z,10.40
2019-05-25T06:30:51.851Z,8.73
2019-05-25T06:33:20.835Z,10.10
2019-05-25T06:35:49.868Z,9.60
2019-05-25T06:38:18.703Z,7.57
2019-05-25T06:40:47.499Z,8.00
2019-05-25T06:43:16.290Z,5.97
2019-05-25T06:45:45.144Z,5.40
2019-05-25T06:48:14.985Z,5.60
2019-05-25T06:50:43.951Z,4.97
2019-05-25T06:53:12.689Z,5.53
2019-05-25T06:55:41.512Z,4.90
2019-05-25T06:58:10.236Z,5.60
2019-05-25T07:00:42.056Z,5.60
2019-05-25T07:03:10.799Z,5.53
2019-05-25T07:05:39.495Z,6.23
2019-05-25T07:08:08.243Z,6.00
2019-05-25T07:10:37.119Z,4.77
2019-05-25T07:13:05.972Z,5.93
2019-05-25T07:15:34.744Z,6.87
2019-05-25T07:18:03.499Z,6.23
2019-05-25T07:20:32.215Z,6.43
2019-05-25T07:23:01.226Z,6.80
2019-05-25T07:25:30.094Z,7.60
2019-05-25T07:28:00.419Z,8.00
2019-05-25T07:30:29.339Z,7.40
2019-05-25T07:32:58.883Z,8.37
2019-05-25T07:35:27.935Z,8.37
2019-05-25T07:37:57.161Z,7.83
2019-05-25T07:40:25.893Z,8.73
2019-05-25T07:42:55.026Z,9.53
2019-05-25T07:45:23.836Z,7.37
2019-05-25T07:47:53.135Z,10.10
2019-05-25T07:50:21.907Z,6.63
2019-05-25T07:52:50.690Z,6.40
2019-05-25T07:55:19.488Z,5.70
2019-05-25T07:57:48.484Z,3.93
2019-05-25T08:00:17.441Z,3.40
2019-05-25T08:02:46.532Z,3.13
2019-05-25T08:05:15.677Z,3.00
2019-05-25T08:07:44.703Z,3.07
2019-05-25T08:10:14.511Z,3.50
2019-05-25T08:12:43.223Z,3.30
2019-05-25T08:15:12.452Z,3.50
2019-05-25T08:17:41.184Z,5.20
2019-05-25T08:20:10.061Z,4.43
2019-05-25T08:22:38.959Z,3.97
2019-05-25T08:25:07.944Z,4.27
2019-05-25T08:27:36.951Z,4.63
2019-05-25T08:30:06.077Z,4.40
2019-05-25T08:32:35.040Z,3.67
2019-05-25T08:35:04.136Z,4.00
2019-05-25T08:37:33.396Z,4.63
2019-05-25T08:40:02.376Z,7.97
2019-05-25T08:42:31.073Z,5.90
2019-05-25T08:44:59.771Z,5.20
2019-05-25T08:47:28.493Z,5.87
2019-05-25T08:49:57.304Z,5.27
2019-05-25T08:52:26.091Z,7.10
2019-05-25T08:54:56.748Z,6.20
2019-05-25T08:57:25.876Z,5.50
2019-05-25T08:59:54.647Z,5.40
2019-05-25T09:02:23.429Z,7.47
2019-05-25T09:04:52.182Z,5.93
2019-05-25T09:07:21.029Z,7.00
2019-05-25T09:09:49.819Z,5.57
2019-05-25T09:12:18.530Z,4.53
2019-05-25T09:14:49.816Z,5.73
2019-05-25T09:17:18.653Z,5.83
2019-05-25T09:19:47.608Z,5.60
2019-05-25T09:22:16.539Z,7.73
2019-05-25T09:24:45.479Z,6.10
2019-05-25T09:27:14.788Z,6.60
2019-05-25T09:29:43.604Z,6.90
2019-05-25T09:32:12.645Z,5.77
2019-05-25T09:34:41.410Z,6.30
2019-05-25T09:37:10.259Z,5.37
2019-05-25T09:39:39.021Z,7.30
2019-05-25T09:42:07.768Z,5.90
2019-05-25T09:44:36.480Z,5.97
2019-05-25T09:47:05.270Z,5.70
2019-05-25T09:49:34.098Z,5.53
2019-05-25T09:52:02.961Z,5.10
2019-05-25T09:54:31.800Z,6.33
2019-05-25T09:57:00.744Z,5.87
2019-05-25T09:59:29.457Z,6.50
2019-05-25T10:01:58.192Z,5.73
2019-05-25T10:04:26.927Z,7.70
2019-05-25T10:06:56.023Z,5.40
2019-05-25T10:09:24.849Z,7.53
2019-05-25T10:11:53.709Z,6.43
2019-05-25T10:14:26.643Z,6.70
2019-05-25T10:16:55.474Z,5.93
2019-05-25T10:19:25.611Z,6.63
2019-05-25T10:21:54.411Z,7.03
2019-05-25T10:24:23.615Z,5.80
2019-05-25T10:26:52.361Z,5.67
2019-05-25T10:29:36.183Z,12.73
2019-05-25T10:31:52.101Z,6.07
2019-05-25T10:34:20.835Z,4.37
2019-05-25T10:36:49.588Z,4.97
2019-05-25T10:39:18.761Z,6.83
2019-05-25T10:41:47.980Z,6.03
2019-05-25T10:44:16.719Z,6.00
2019-05-25T10:46:45.678Z,4.90
2019-05-25T10:49:14.483Z,5.50
2019-05-25T10:51:43.455Z,5.50
2019-05-25T10:54:12.253Z,8.20
2019-05-25T10:56:44.669Z,4.50
2019-05-25T10:59:14.105Z,4.90
2019-05-25T11:01:42.895Z,4.97
2019-05-25T11:04:11.921Z,4.80
2019-05-25T11:06:40.730Z,5.60
2019-05-25T11:09:09.480Z,4.93
2019-05-25T11:11:38.581Z,5.10
2019-05-25T11:14:07.655Z,5.43
2019-05-25T11:16:36.594Z,5.53
2019-05-25T11:19:05.576Z,5.90
2019-05-25T11:21:34.669Z,5.40
2019-05-25T11:24:03.535Z,6.30
2019-05-25T11:26:32.335Z,6.83
2019-05-25T11:29:01.136Z,5.50
2019-05-25T11:31:30.297Z,7.20
2019-05-25T11:33:59.094Z,5.47
2019-05-25T11:36:28.111Z,7.37
2019-05-25T11:38:57.136Z,6.00
2019-05-25T11:41:27.427Z,8.07
2019-05-25T11:43:56.387Z,6.47
2019-05-25T11:46:25.152Z,7.80
2019-05-25T11:48:53.954Z,7.03
2019-05-25T11:51:22.931Z,7.03
2019-05-25T11:53:52.026Z,7.97
2019-05-25T11:56:20.799Z,7.77
2019-05-25T11:58:49.631Z,8.50
2019-05-25T12:01:18.413Z,7.50
2019-05-25T12:03:47.428Z,7.63
2019-05-25T12:06:16.663Z,8.10
2019-05-25T12:08:47.880Z,9.27
2019-05-25T12:11:16.788Z,8.13
2019-05-25T12:13:45.573Z,6.97
2019-05-25T12:16:14.536Z,6.90
2019-05-25T12:18:43.450Z,9.57
2019-05-25T12:21:12.429Z,7.77
2019-05-25T12:23:41.512Z,9.43
2019-05-25T12:26:10.617Z,7.43
2019-05-25T12:28:39.472Z,8.03
2019-05-25T12:31:08.579Z,9.73
2019-05-25T12:33:37.853Z,9.60
2019-05-25T12:36:07.482Z,6.90
2019-05-25T12:38:36.729Z,8.77
2019-05-25T12:41:05.897Z,7.63
2019-05-25T12:43:34.836Z,7.50
2019-05-25T12:46:03.978Z,8.67
2019-05-25T12:48:33.270Z,7.60
2019-05-25T12:51:02.191Z,6.90
2019-05-25T12:53:30.936Z,9.90
2019-05-25T12:56:00.377Z,7.83
2019-05-25T12:58:29.610Z,9.17
2019-05-25T13:00:58.762Z,9.73
2019-05-25T13:03:28.412Z,7.83
2019-05-25T13:05:57.588Z,8.07
2019-05-25T13:08:26.719Z,9.00
2019-05-25T13:10:55.778Z,10.00
2019-05-25T13:13:24.519Z,10.50
2019-05-25T13:15:53.291Z,10.47
2019-05-25T13:18:22.338Z,10.50
2019-05-25T13:20:51.085Z,9.03
2019-05-25T13:23:22.913Z,9.53
2019-05-25T13:25:51.715Z,8.60
2019-05-25T13:28:20.629Z,9.73
2019-05-25T13:30:49.408Z,9.13
2019-05-25T13:33:18.158Z,7.57
2019-05-25T13:35:46.979Z,8.60
2019-05-25T13:38:15.826Z,9.40
2019-05-25T13:40:44.727Z,9.60
2019-05-25T13:43:13.606Z,8.40
2019-05-25T13:45:45.799Z,8.47
2019-05-25T13:48:12.831Z,10.27
2019-05-25T13:50:41.780Z,12.27
2019-05-25T13:53:10.774Z,9.33
2019-05-25T13:55:39.574Z,8.40
2019-05-25T13:58:08.669Z,7.70
2019-05-25T14:00:37.483Z,7.37
2019-05-25T14:03:06.589Z,9.20
2019-05-25T14:05:35.608Z,6.83
2019-05-25T14:08:04.408Z,6.80
2019-05-25T14:10:33.195Z,8.00
2019-05-25T14:13:02.028Z,10.00
2019-05-25T14:15:30.835Z,7.47
2019-05-25T14:17:59.567Z,7.87
2019-05-25T14:20:28.391Z,8.70
2019-05-25T14:22:57.113Z,9.37
2019-05-25T14:25:25.892Z,9.20
2019-05-25T14:27:54.858Z,11.30
2019-05-25T14:30:23.822Z,10.50
2019-05-25T14:32:53.182Z,9.80
2019-05-25T14:35:22.032Z,9.73
2019-05-25T14:37:51.144Z,9.43
2019-05-25T14:40:20.056Z,8.50
2019-05-25T14:42:49.082Z,8.60
2019-05-25T14:45:18.233Z,10.27
2019-05-25T14:47:47.000Z,13.20
2019-05-25T14:50:16.599Z,11.77
2019-05-25T14:52:45.825Z,10.77
2019-05-25T14:55:15.001Z,10.80
2019-05-25T14:57:43.812Z,11.57
2019-05-25T15:00:13.316Z,9.63
2019-05-25T15:02:42.480Z,10.17
2019-05-25T15:05:17.548Z,9.93
2019-05-25T15:07:46.348Z,11.63
2019-05-25T15:10:16.043Z,13.70
2019-05-25T15:12:44.788Z,10.63
2019-05-25T15:15:14.479Z,10.77
2019-05-25T15:17:43.551Z,13.07
2019-05-25T15:20:13.099Z,10.27
2019-05-25T15:22:41.820Z,11.23
2019-05-25T15:25:11.813Z,11.73
2019-05-25T15:27:40.828Z,14.53
2019-05-25T15:30:09.699Z,13.43
2019-05-25T15:32:38.552Z,13.30
2019-05-25T15:35:07.851Z,16.60
2019-05-25T15:37:36.800Z,14.93
2019-05-25T15:40:06.685Z,14.47
2019-05-25T15:42:35.750Z,13.20
2019-05-25T15:45:05.276Z,14.93
2019-05-25T15:47:34.236Z,15.40
2019-05-25T15:50:03.341Z,14.60
2019-05-25T15:52:32.411Z,14.23
2019-05-25T15:55:01.158Z,14.10
2019-05-25T15:57:30.035Z,15.73
2019-05-25T15:59:59.332Z,15.90
2019-05-25T16:02:36.693Z,15.70
2019-05-25T16:04:58.849Z,14.53
2019-05-25T16:07:27.794Z,15.17
2019-05-25T16:09:57.412Z,17.53
2019-05-25T16:12:26.230Z,16.20
2019-05-25T16:14:54.984Z,16.07
2019-05-25T16:17:26.166Z,16.07
2019-05-25T16:19:54.391Z,16.20
2019-05-25T16:22:23.228Z,15.83
2019-05-25T16:24:52.304Z,17.83
2019-05-25T16:27:21.255Z,15.73
2019-05-25T16:29:50.046Z,13.60
2019-05-25T16:32:18.901Z,12.90
2019-05-25T16:34:48.100Z,13.20
2019-05-25T16:37:17.369Z,12.60
2019-05-25T16:39:46.308Z,12.80
2019-05-25T16:42:15.038Z,14.90
2019-05-25T16:44:43.788Z,13.23
2019-05-25T16:47:12.591Z,13.73
2019-05-25T16:49:41.339Z,17.63
2019-05-25T16:52:10.154Z,13.47
2019-05-25T16:54:39.065Z,15.57
2019-05-25T16:57:08.113Z,17.30
2019-05-25T16:59:36.955Z,16.73
2019-05-25T17:02:05.792Z,17.60
2019-05-25T17:04:34.789Z,14.47
2019-05-25T17:07:03.715Z,16.90
2019-05-25T17:09:32.659Z,16.50
2019-05-25T17:12:01.520Z,17.60
2019-05-25T17:14:30.310Z,19.37
2019-05-25T17:16:59.034Z,15.33
2019-05-25T17:19:27.864Z,17.87
2019-05-25T17:21:57.064Z,16.20
2019-05-25T17:24:25.904Z,14.23
2019-05-25T17:26:54.715Z,14.33
2019-05-25T17:29:23.443Z,15.17
2019-05-25T17:31:52.247Z,12.20
2019-05-25T17:34:21.011Z,13.47
2019-05-25T17:36:49.847Z,13.20
2019-05-25T17:39:18.880Z,11.87
2019-05-25T17:41:47.662Z,22.40
2019-05-25T17:44:16.456Z,13.50
2019-05-25T17:46:45.219Z,14.17
2019-05-25T17:49:13.967Z,13.10
2019-05-25T17:51:45.890Z,17.50
2019-05-25T17:54:14.920Z,15.13
2019-05-25T17:56:43.956Z,13.70
2019-05-25T17:59:12.715Z,13.37
2019-05-25T18:01:41.586Z,11.83
2019-05-25T18:04:10.487Z,10.77
2019-05-25T18:06:39.273Z,11.10
2019-05-25T18:09:08.512Z,9.87
2019-05-25T18:11:37.571Z,11.00
2019-05-25T18:14:06.447Z,10.10
2019-05-25T18:16:35.306Z,9.20
2019-05-25T18:19:04.347Z,9.10
2019-05-25T18:21:33.379Z,10.07
2019-05-25T18:24:02.227Z,9.43
2019-05-25T18:26:31.000Z,9.43
2019-05-25T18:29:00.682Z,9.77
2019-05-25T18:31:29.810Z,8.33
2019-05-25T18:33:58.801Z,8.47
2019-05-25T18:36:27.648Z,9.40
2019-05-25T18:38:56.424Z,9.63
2019-05-25T18:41:25.204Z,10.20
2019-05-25T18:43:54.388Z,10.03
2019-05-25T18:46:23.306Z,10.80
2019-05-25T18:48:52.350Z,10.50
2019-05-25T18:51:21.176Z,9.90
2019-05-25T18:53:49.929Z,9.10
2019-05-25T18:56:19.078Z,8.90
2019-05-25T18:58:48.096Z,10.03
2019-05-25T19:01:16.899Z,10.43
2019-05-25T19:03:46.112Z,10.17
2019-05-25T19:06:14.969Z,10.70
2019-05-25T19:08:43.842Z,12.53
2019-05-25T19:11:12.736Z,11.67
2019-05-25T19:13:41.561Z,10.80
2019-05-25T19:16:10.503Z,11.83
2019-05-25T19:18:39.344Z,11.37
2019-05-25T19:21:08.556Z,12.05
2019-05-25T19:23:37.384Z,12.50
2019-05-25T19:26:06.322Z,13.57
2019-05-25T19:28:35.167Z,13.23
2019-05-25T19:31:04.040Z,14.43
2019-05-25T19:33:32.952Z,16.57
2019-05-25T19:36:01.678Z,14.13
2019-05-25T19:38:30.478Z,13.38
2019-05-25T19:40:59.330Z,12.05
2019-05-25T19:43:28.200Z,12.63
2019-05-25T19:45:57.624Z,12.05
2019-05-25T19:48:26.727Z,12.60
2019-05-25T19:50:56.502Z,11.93
2019-05-25T19:53:25.392Z,11.75
2019-05-25T19:55:54.484Z,12.43
2019-05-25T19:58:23.399Z,10.82
2019-05-25T20:00:52.288Z,12.03
2019-05-25T20:03:21.166Z,13.00
2019-05-25T20:05:50.159Z,13.80
2019-05-25T20:08:19.049Z,15.10
2019-05-25T20:10:48.195Z,13.75
2019-05-25T20:13:17.495Z,14.60
2019-05-25T20:15:46.774Z,14.20
2019-05-25T20:18:15.890Z,16.20
2019-05-25T20:20:45.427Z,15.15
2019-05-25T20:23:14.297Z,16.95
2019-05-25T20:25:43.103Z,14.80
2019-05-25T20:28:11.895Z,14.33
2019-05-25T20:30:41.520Z,13.22
2019-05-25T20:33:10.496Z,13.72
2019-05-25T20:35:39.433Z,11.50
2019-05-25T20:38:08.728Z,12.65
2019-05-25T20:40:37.902Z,13.60
2019-05-25T20:43:06.975Z,13.58
2019-05-25T20:45:36.007Z,15.50
2019-05-25T20:48:05.155Z,14.75
2019-05-25T20:50:34.106Z,13.20
2019-05-25T20:53:03.135Z,12.60
2019-05-25T20:55:32.270Z,11.90
2019-05-25T20:58:01.527Z,12.90
2019-05-25T21:00:30.616Z,12.80
2019-05-25T21:03:05.839Z,13.60
2019-05-25T21:05:30.892Z,14.63
2019-05-25T21:08:00.112Z,15.58
2019-05-25T21:10:29.355Z,14.00
2019-05-25T21:12:58.251Z,15.98
2019-05-25T21:15:27.304Z,15.58
2019-05-25T21:17:56.382Z,17.10
2019-05-25T21:20:25.456Z,20.85
2019-05-25T21:22:54.692Z,17.05
2019-05-25T21:25:23.564Z,15.75
2019-05-25T21:27:52.615Z,15.68
2019-05-25T21:30:21.463Z,12.20
2019-05-25T21:32:50.231Z,14.03
2019-05-25T21:35:19.501Z,11.40
2019-05-25T21:37:48.414Z,11.25
2019-05-25T21:40:17.434Z,9.58
2019-05-25T21:42:46.568Z,9.13
2019-05-25T21:45:16.251Z,9.08
2019-05-25T21:47:45.114Z,9.10
2019-05-25T21:50:14.231Z,9.80
2019-05-25T21:52:43.039Z,8.23
2019-05-25T21:55:12.241Z,8.23
2019-05-25T21:57:41.083Z,9.25
2019-05-25T22:00:11.953Z,9.88
2019-05-25T22:02:40.767Z,10.00
2019-05-25T22:05:09.783Z,9.80
2019-05-25T22:07:38.555Z,11.12
2019-05-25T22:10:08.007Z,10.72
2019-05-25T22:12:40.070Z,9.83
2019-05-25T22:15:09.493Z,10.48
2019-05-25T22:17:39.091Z,9.15
2019-05-25T22:20:09.417Z,10.68
2019-05-25T22:22:38.439Z,9.28
2019-05-25T22:25:07.998Z,7.80
2019-05-25T22:27:36.751Z,8.73
2019-05-25T22:30:06.002Z,8.03
2019-05-25T22:32:34.792Z,8.43
2019-05-25T22:35:03.655Z,8.45
2019-05-25T22:37:32.647Z,10.05
2019-05-25T22:40:01.425Z,9.50
2019-05-25T22:42:30.561Z,9.30
2019-05-25T22:44:59.403Z,9.70
2019-05-25T22:47:28.265Z,8.70
2019-05-25T22:49:57.048Z,8.13
2019-05-25T22:52:26.389Z,7.70
2019-05-25T22:54:55.430Z,6.72
2019-05-25T22:57:24.167Z,7.80
2019-05-25T22:59:52.922Z,6.87
2019-05-25T23:02:21.712Z,7.62
2019-05-25T23:04:50.741Z,8.00
2019-05-25T23:07:19.816Z,7.85
2019-05-25T23:09:48.895Z,6.28
2019-05-25T23:12:17.887Z,6.45
2019-05-25T23:14:47.357Z,7.45
2019-05-25T23:17:16.204Z,9.15
2019-05-25T23:19:44.975Z,8.20
2019-05-25T23:22:13.778Z,8.08
2019-05-25T23:24:42.839Z,9.48
2019-05-25T23:27:11.627Z,10.08
2019-05-25T23:29:40.405Z,8.40
2019-05-25T23:32:09.263Z,7.92
2019-05-25T23:34:38.093Z,9.20
2019-05-25T23:37:14.531Z,7.60
2019-05-25T23:39:37.938Z,7.72
2019-05-25T23:42:06.881Z,7.45
2019-05-25T23:44:35.980Z,7.20
2019-05-25T23:47:05.028Z,7.58
2019-05-25T23:49:33.859Z,7.80
2019-05-25T23:52:02.930Z,7.05
2019-05-25T23:54:31.719Z,8.03
2019-05-25T23:57:01.053Z,7.97
2019-05-25T23:59:29.850Z,7.85
